sensor_id;sensor_type;location;lat;lon;timestamp;P1;durP1;ratioP1;P2;durP2;ratioP2
55813;SDS011;65494;42.818;0.404;2023-03-23T00:02:12;8.48;;;3.20;;
55813;SDS011;65494;42.818;0.404;2023-03-23T00:14:39;6.30;;;2.70;;
55813;SDS011;65494;42.818;0.404;2023-03-23T00:27:29;10.27;;;3.40;;
55813;SDS011;65494;42.818;0.404;2023-03-23T00:46:03;6.65;;;2.25;;
55813;SDS011;65494;42.818;0.404;2023-03-23T00:51:52;9.85;;;3.55;;
55813;SDS011;65494;42.818;0.404;2023-03-23T00:54:58;6.07;;;2.47;;
55813;SDS011;65494;42.818;0.404;2023-03-23T00:58:04;6.20;;;2.25;;
55813;SDS011;65494;42.818;0.404;2023-03-23T01:00:51;6.95;;;2.28;;
55813;SDS011;65494;42.818;0.404;2023-03-23T01:03:39;5.55;;;2.17;;
55813;SDS011;65494;42.818;0.404;2023-03-23T01:06:30;10.02;;;2.10;;
55813;SDS011;65494;42.818;0.404;2023-03-23T01:15:44;6.43;;;1.80;;
55813;SDS011;65494;42.818;0.404;2023-03-23T01:27:50;5.00;;;1.40;;
55813;SDS011;65494;42.818;0.404;2023-03-23T01:34:19;3.43;;;1.77;;
55813;SDS011;65494;42.818;0.404;2023-03-23T01:46:00;5.00;;;1.75;;
55813;SDS011;65494;42.818;0.404;2023-03-23T01:49:09;8.05;;;2.35;;
55813;SDS011;65494;42.818;0.404;2023-03-23T01:58:27;1.92;;;1.10;;
55813;SDS011;65494;42.818;0.404;2023-03-23T02:35:51;1.52;;;1.00;;
55813;SDS011;65494;42.818;0.404;2023-03-23T03:15:18;3.55;;;1.58;;
55813;SDS011;65494;42.818;0.404;2023-03-23T03:29:52;2.22;;;1.23;;
55813;SDS011;65494;42.818;0.404;2023-03-23T03:36:01;1.30;;;0.80;;
55813;SDS011;65494;42.818;0.404;2023-03-23T03:38:59;7.25;;;2.10;;
55813;SDS011;65494;42.818;0.404;2023-03-23T03:41:51;4.15;;;1.23;;
55813;SDS011;65494;42.818;0.404;2023-03-23T03:56:19;1.67;;;0.80;;
55813;SDS011;65494;42.818;0.404;2023-03-23T03:59:08;4.95;;;2.10;;
55813;SDS011;65494;42.818;0.404;2023-03-23T04:04:45;3.45;;;1.38;;
55813;SDS011;65494;42.818;0.404;2023-03-23T04:07:33;2.25;;;1.20;;
55813;SDS011;65494;42.818;0.404;2023-03-23T04:10:37;4.22;;;1.30;;
55813;SDS011;65494;42.818;0.404;2023-03-23T04:14:04;2.45;;;1.15;;
55813;SDS011;65494;42.818;0.404;2023-03-23T04:19:55;7.90;;;2.80;;
55813;SDS011;65494;42.818;0.404;2023-03-23T04:22:41;2.33;;;0.82;;
55813;SDS011;65494;42.818;0.404;2023-03-23T04:25:38;1.90;;;1.10;;
55813;SDS011;65494;42.818;0.404;2023-03-23T04:28:19;1.73;;;1.00;;
55813;SDS011;65494;42.818;0.404;2023-03-23T04:31:04;1.33;;;0.75;;
55813;SDS011;65494;42.818;0.404;2023-03-23T04:33:54;2.45;;;1.13;;
55813;SDS011;65494;42.818;0.404;2023-03-23T04:46:14;2.03;;;1.10;;
55813;SDS011;65494;42.818;0.404;2023-03-23T04:52:07;1.70;;;0.93;;
55813;SDS011;65494;42.818;0.404;2023-03-23T04:55:12;0.93;;;0.80;;
55813;SDS011;65494;42.818;0.404;2023-03-23T04:58:32;3.67;;;0.82;;
55813;SDS011;65494;42.818;0.404;2023-03-23T05:04:12;2.38;;;1.05;;
55813;SDS011;65494;42.818;0.404;2023-03-23T05:07:07;2.90;;;1.33;;
55813;SDS011;65494;42.818;0.404;2023-03-23T05:10:02;1.85;;;1.10;;
55813;SDS011;65494;42.818;0.404;2023-03-23T05:13:29;2.88;;;0.90;;
55813;SDS011;65494;42.818;0.404;2023-03-23T05:25:25;2.28;;;0.82;;
55813;SDS011;65494;42.818;0.404;2023-03-23T05:34:40;1.90;;;1.20;;
55813;SDS011;65494;42.818;0.404;2023-03-23T05:47:03;1.55;;;0.93;;
55813;SDS011;65494;42.818;0.404;2023-03-23T05:52:48;2.63;;;1.02;;
55813;SDS011;65494;42.818;0.404;2023-03-23T06:05:14;2.42;;;1.00;;
55813;SDS011;65494;42.818;0.404;2023-03-23T06:07:41;7.78;;;1.08;;
55813;SDS011;65494;42.818;0.404;2023-03-23T06:10:08;3.17;;;1.30;;
55813;SDS011;65494;42.818;0.404;2023-03-23T06:15:17;1.50;;;1.00;;
55813;SDS011;65494;42.818;0.404;2023-03-23T06:18:25;2.95;;;1.20;;
55813;SDS011;65494;42.818;0.404;2023-03-23T06:21:08;4.30;;;2.10;;
55813;SDS011;65494;42.818;0.404;2023-03-23T06:23:52;3.22;;;1.23;;
55813;SDS011;65494;42.818;0.404;2023-03-23T06:26:34;5.00;;;1.40;;
55813;SDS011;65494;42.818;0.404;2023-03-23T06:29:28;3.95;;;1.10;;
55813;SDS011;65494;42.818;0.404;2023-03-23T06:35:23;4.28;;;1.50;;
55813;SDS011;65494;42.818;0.404;2023-03-23T06:37:52;2.97;;;1.63;;
55813;SDS011;65494;42.818;0.404;2023-03-23T06:40:22;5.47;;;1.85;;
55813;SDS011;65494;42.818;0.404;2023-03-23T06:42:50;5.97;;;2.05;;
55813;SDS011;65494;42.818;0.404;2023-03-23T06:45:17;2.50;;;1.30;;
55813;SDS011;65494;42.818;0.404;2023-03-23T06:47:47;6.25;;;1.40;;
55813;SDS011;65494;42.818;0.404;2023-03-23T06:50:36;1.92;;;1.42;;
55813;SDS011;65494;42.818;0.404;2023-03-23T06:53:03;1.77;;;1.17;;
55813;SDS011;65494;42.818;0.404;2023-03-23T06:55:38;1.80;;;1.23;;
55813;SDS011;65494;42.818;0.404;2023-03-23T06:58:07;2.65;;;1.60;;
55813;SDS011;65494;42.818;0.404;2023-03-23T07:00:56;2.63;;;1.00;;
55813;SDS011;65494;42.818;0.404;2023-03-23T07:03:29;3.15;;;1.38;;
55813;SDS011;65494;42.818;0.404;2023-03-23T07:06:25;5.15;;;2.38;;
55813;SDS011;65494;42.818;0.404;2023-03-23T07:09:18;5.55;;;1.50;;
55813;SDS011;65494;42.818;0.404;2023-03-23T07:14:53;9.60;;;5.38;;
55813;SDS011;65494;42.818;0.404;2023-03-23T07:24:19;2.75;;;1.30;;
55813;SDS011;65494;42.818;0.404;2023-03-23T07:27:34;9.00;;;3.85;;
55813;SDS011;65494;42.818;0.404;2023-03-23T07:29:53;3.78;;;1.38;;
55813;SDS011;65494;42.818;0.404;2023-03-23T07:32:41;5.15;;;1.70;;
55813;SDS011;65494;42.818;0.404;2023-03-23T07:35:31;5.25;;;1.80;;
55813;SDS011;65494;42.818;0.404;2023-03-23T07:38:10;2.83;;;1.30;;
55813;SDS011;65494;42.818;0.404;2023-03-23T07:49:48;2.53;;;1.23;;
55813;SDS011;65494;42.818;0.404;2023-03-23T07:52:14;6.32;;;3.15;;
55813;SDS011;65494;42.818;0.404;2023-03-23T07:54:40;5.63;;;2.08;;
55813;SDS011;65494;42.818;0.404;2023-03-23T07:57:06;3.47;;;1.48;;
55813;SDS011;65494;42.818;0.404;2023-03-23T07:59:32;5.30;;;2.65;;
55813;SDS011;65494;42.818;0.404;2023-03-23T08:01:59;6.40;;;2.60;;
55813;SDS011;65494;42.818;0.404;2023-03-23T08:04:26;17.52;;;4.43;;
55813;SDS011;65494;42.818;0.404;2023-03-23T08:06:52;6.15;;;2.95;;
55813;SDS011;65494;42.818;0.404;2023-03-23T08:09:18;6.95;;;3.30;;
55813;SDS011;65494;42.818;0.404;2023-03-23T08:11:44;10.68;;;4.75;;
55813;SDS011;65494;42.818;0.404;2023-03-23T08:14:13;5.78;;;2.53;;
55813;SDS011;65494;42.818;0.404;2023-03-23T08:16:39;2.85;;;1.00;;
55813;SDS011;65494;42.818;0.404;2023-03-23T08:19:05;8.98;;;1.90;;
55813;SDS011;65494;42.818;0.404;2023-03-23T08:21:32;1.20;;;0.80;;
55813;SDS011;65494;42.818;0.404;2023-03-23T08:23:58;2.85;;;0.90;;
55813;SDS011;65494;42.818;0.404;2023-03-23T08:26:24;4.78;;;0.88;;
55813;SDS011;65494;42.818;0.404;2023-03-23T08:28:51;3.20;;;1.23;;
55813;SDS011;65494;42.818;0.404;2023-03-23T08:31:18;5.03;;;1.48;;
55813;SDS011;65494;42.818;0.404;2023-03-23T08:33:44;3.72;;;1.48;;
55813;SDS011;65494;42.818;0.404;2023-03-23T08:36:11;2.25;;;1.10;;
55813;SDS011;65494;42.818;0.404;2023-03-23T08:38:38;1.35;;;0.60;;
55813;SDS011;65494;42.818;0.404;2023-03-23T08:54:07;1.50;;;0.60;;
55813;SDS011;65494;42.818;0.404;2023-03-23T08:56:33;6.88;;;2.58;;
55813;SDS011;65494;42.818;0.404;2023-03-23T08:59:00;1.80;;;0.50;;
55813;SDS011;65494;42.818;0.404;2023-03-23T09:01:26;0.90;;;0.60;;
55813;SDS011;65494;42.818;0.404;2023-03-23T09:03:52;3.75;;;0.70;;
55813;SDS011;65494;42.818;0.404;2023-03-23T09:06:19;2.38;;;0.65;;
55813;SDS011;65494;42.818;0.404;2023-03-23T09:08:45;1.55;;;0.55;;
55813;SDS011;65494;42.818;0.404;2023-03-23T09:11:11;16.17;;;7.35;;
55813;SDS011;65494;42.818;0.404;2023-03-23T09:13:38;3.20;;;0.73;;
55813;SDS011;65494;42.818;0.404;2023-03-23T09:16:05;2.05;;;0.75;;
55813;SDS011;65494;42.818;0.404;2023-03-23T09:18:31;3.47;;;0.70;;
55813;SDS011;65494;42.818;0.404;2023-03-23T09:20:58;2.97;;;0.70;;
55813;SDS011;65494;42.818;0.404;2023-03-23T09:23:25;1.38;;;0.50;;
55813;SDS011;65494;42.818;0.404;2023-03-23T09:25:51;1.13;;;0.55;;
55813;SDS011;65494;42.818;0.404;2023-03-23T09:28:17;3.15;;;0.73;;
55813;SDS011;65494;42.818;0.404;2023-03-23T09:30:44;1.60;;;0.98;;
55813;SDS011;65494;42.818;0.404;2023-03-23T09:33:10;2.05;;;0.80;;
55813;SDS011;65494;42.818;0.404;2023-03-23T09:35:37;0.82;;;0.55;;
55813;SDS011;65494;42.818;0.404;2023-03-23T09:38:03;0.90;;;0.73;;
55813;SDS011;65494;42.818;0.404;2023-03-23T09:43:08;3.38;;;0.90;;
55813;SDS011;65494;42.818;0.404;2023-03-23T09:50:36;10.82;;;4.35;;
55813;SDS011;65494;42.818;0.404;2023-03-23T09:53:13;11.57;;;6.65;;
55813;SDS011;65494;42.818;0.404;2023-03-23T09:55:40;9.25;;;5.38;;
55813;SDS011;65494;42.818;0.404;2023-03-23T10:00:37;1.52;;;0.70;;
55813;SDS011;65494;42.818;0.404;2023-03-23T10:03:17;2.33;;;0.60;;
55813;SDS011;65494;42.818;0.404;2023-03-23T10:05:45;1.50;;;0.77;;
55813;SDS011;65494;42.818;0.404;2023-03-23T10:08:19;1.92;;;0.80;;
55813;SDS011;65494;42.818;0.404;2023-03-23T10:10:51;2.80;;;0.90;;
55813;SDS011;65494;42.818;0.404;2023-03-23T10:13:23;2.63;;;1.02;;
55813;SDS011;65494;42.818;0.404;2023-03-23T10:15:52;2.35;;;0.90;;
55813;SDS011;65494;42.818;0.404;2023-03-23T10:21:03;3.15;;;0.95;;
55813;SDS011;65494;42.818;0.404;2023-03-23T10:23:37;2.83;;;0.80;;
55813;SDS011;65494;42.818;0.404;2023-03-23T10:26:17;2.92;;;0.80;;
55813;SDS011;65494;42.818;0.404;2023-03-23T10:28:49;6.30;;;0.80;;
55813;SDS011;65494;42.818;0.404;2023-03-23T10:31:25;2.83;;;1.45;;
55813;SDS011;65494;42.818;0.404;2023-03-23T10:33:57;3.72;;;1.25;;
55813;SDS011;65494;42.818;0.404;2023-03-23T10:36:29;5.78;;;2.42;;
55813;SDS011;65494;42.818;0.404;2023-03-23T10:39:13;1.30;;;0.77;;
55813;SDS011;65494;42.818;0.404;2023-03-23T10:44:16;2.05;;;0.60;;
55813;SDS011;65494;42.818;0.404;2023-03-23T10:49:12;2.70;;;0.98;;
55813;SDS011;65494;42.818;0.404;2023-03-23T10:51:41;2.22;;;0.90;;
55813;SDS011;65494;42.818;0.404;2023-03-23T10:54:09;2.55;;;0.68;;
55813;SDS011;65494;42.818;0.404;2023-03-23T10:56:36;0.80;;;0.50;;
55813;SDS011;65494;42.818;0.404;2023-03-23T10:59:19;4.53;;;0.70;;
55813;SDS011;65494;42.818;0.404;2023-03-23T11:01:48;1.10;;;0.52;;
55813;SDS011;65494;42.818;0.404;2023-03-23T11:04:15;2.38;;;0.60;;
55813;SDS011;65494;42.818;0.404;2023-03-23T11:06:46;1.20;;;0.60;;
55813;SDS011;65494;42.818;0.404;2023-03-23T11:09:13;0.52;;;0.40;;
55813;SDS011;65494;42.818;0.404;2023-03-23T11:11:41;2.80;;;0.55;;
55813;SDS011;65494;42.818;0.404;2023-03-23T11:14:14;4.93;;;0.77;;
55813;SDS011;65494;42.818;0.404;2023-03-23T11:16:45;1.27;;;0.60;;
55813;SDS011;65494;42.818;0.404;2023-03-23T11:19:20;2.55;;;0.80;;
55813;SDS011;65494;42.818;0.404;2023-03-23T11:21:51;7.03;;;0.82;;
55813;SDS011;65494;42.818;0.404;2023-03-23T11:24:17;1.55;;;0.63;;
55813;SDS011;65494;42.818;0.404;2023-03-23T11:26:44;1.63;;;0.52;;
55813;SDS011;65494;42.818;0.404;2023-03-23T11:29:13;1.02;;;0.80;;
55813;SDS011;65494;42.818;0.404;2023-03-23T11:31:42;1.38;;;0.82;;
55813;SDS011;65494;42.818;0.404;2023-03-23T11:36:38;1.45;;;0.55;;
55813;SDS011;65494;42.818;0.404;2023-03-23T11:41:47;0.85;;;0.40;;
55813;SDS011;65494;42.818;0.404;2023-03-23T11:44:13;0.93;;;0.70;;
55813;SDS011;65494;42.818;0.404;2023-03-23T11:47:01;1.55;;;0.50;;
55813;SDS011;65494;42.818;0.404;2023-03-23T11:52:28;1.83;;;0.50;;
55813;SDS011;65494;42.818;0.404;2023-03-23T11:55:00;1.00;;;0.50;;
55813;SDS011;65494;42.818;0.404;2023-03-23T11:59:56;0.55;;;0.40;;
55813;SDS011;65494;42.818;0.404;2023-03-23T12:05:38;2.42;;;0.65;;
55813;SDS011;65494;42.818;0.404;2023-03-23T12:13:21;1.10;;;0.50;;
55813;SDS011;65494;42.818;0.404;2023-03-23T12:21:05;2.47;;;0.70;;
55813;SDS011;65494;42.818;0.404;2023-03-23T12:26:14;2.90;;;0.77;;
55813;SDS011;65494;42.818;0.404;2023-03-23T12:31:47;1.38;;;0.70;;
55813;SDS011;65494;42.818;0.404;2023-03-23T12:37:27;1.70;;;0.65;;
55813;SDS011;65494;42.818;0.404;2023-03-23T12:45:21;1.58;;;0.93;;
55813;SDS011;65494;42.818;0.404;2023-03-23T12:47:50;6.07;;;0.85;;
55813;SDS011;65494;42.818;0.404;2023-03-23T12:50:30;3.60;;;0.80;;
55813;SDS011;65494;42.818;0.404;2023-03-23T12:57:58;0.45;;;0.35;;
55813;SDS011;65494;42.818;0.404;2023-03-23T13:10:29;1.85;;;0.57;;
55813;SDS011;65494;42.818;0.404;2023-03-23T13:12:58;0.65;;;0.50;;
55813;SDS011;65494;42.818;0.404;2023-03-23T13:15:31;1.10;;;0.80;;
55813;SDS011;65494;42.818;0.404;2023-03-23T13:18:10;1.08;;;0.50;;
55813;SDS011;65494;42.818;0.404;2023-03-23T13:20:53;2.65;;;0.60;;
55813;SDS011;65494;42.818;0.404;2023-03-23T13:25:50;1.38;;;0.60;;
55813;SDS011;65494;42.818;0.404;2023-03-23T13:28:17;2.60;;;0.75;;
55813;SDS011;65494;42.818;0.404;2023-03-23T13:31:19;8.43;;;1.00;;
55813;SDS011;65494;42.818;0.404;2023-03-23T13:33:38;1.48;;;0.50;;
55813;SDS011;65494;42.818;0.404;2023-03-23T13:36:07;0.30;;;0.30;;
55813;SDS011;65494;42.818;0.404;2023-03-23T13:38:34;1.55;;;0.40;;
55813;SDS011;65494;42.818;0.404;2023-03-23T13:41:10;1.95;;;0.90;;
55813;SDS011;65494;42.818;0.404;2023-03-23T13:43:38;2.72;;;0.77;;
55813;SDS011;65494;42.818;0.404;2023-03-23T13:48:48;1.88;;;0.90;;
55813;SDS011;65494;42.818;0.404;2023-03-23T13:51:24;0.85;;;0.50;;
55813;SDS011;65494;42.818;0.404;2023-03-23T13:53:50;0.63;;;0.50;;
55813;SDS011;65494;42.818;0.404;2023-03-23T13:59:05;6.25;;;0.75;;
55813;SDS011;65494;42.818;0.404;2023-03-23T14:01:36;3.10;;;0.50;;
55813;SDS011;65494;42.818;0.404;2023-03-23T14:04:04;2.15;;;0.70;;
55813;SDS011;65494;42.818;0.404;2023-03-23T14:06:35;4.50;;;0.90;;
55813;SDS011;65494;42.818;0.404;2023-03-23T14:09:23;0.52;;;0.40;;
55813;SDS011;65494;42.818;0.404;2023-03-23T14:11:54;1.20;;;0.70;;
55813;SDS011;65494;42.818;0.404;2023-03-23T14:14:23;1.88;;;0.70;;
55813;SDS011;65494;42.818;0.404;2023-03-23T14:16:50;2.10;;;1.10;;
55813;SDS011;65494;42.818;0.404;2023-03-23T14:19:24;2.15;;;0.90;;
55813;SDS011;65494;42.818;0.404;2023-03-23T14:21:52;2.17;;;0.70;;
55813;SDS011;65494;42.818;0.404;2023-03-23T14:24:23;3.35;;;0.63;;
55813;SDS011;65494;42.818;0.404;2023-03-23T14:26:51;1.42;;;0.80;;
55813;SDS011;65494;42.818;0.404;2023-03-23T14:29:17;1.50;;;0.70;;
55813;SDS011;65494;42.818;0.404;2023-03-23T14:31:53;2.83;;;0.38;;
55813;SDS011;65494;42.818;0.404;2023-03-23T14:34:20;1.13;;;0.57;;
55813;SDS011;65494;42.818;0.404;2023-03-23T14:36:47;0.57;;;0.40;;
55813;SDS011;65494;42.818;0.404;2023-03-23T14:41:39;0.98;;;0.60;;
55813;SDS011;65494;42.818;0.404;2023-03-23T14:44:07;2.80;;;0.70;;
55813;SDS011;65494;42.818;0.404;2023-03-23T14:46:33;0.95;;;0.60;;
55813;SDS011;65494;42.818;0.404;2023-03-23T14:49:01;1.10;;;0.70;;
55813;SDS011;65494;42.818;0.404;2023-03-23T14:51:28;3.95;;;0.77;;
55813;SDS011;65494;42.818;0.404;2023-03-23T14:53:55;1.17;;;0.77;;
55813;SDS011;65494;42.818;0.404;2023-03-23T14:56:21;1.25;;;0.60;;
55813;SDS011;65494;42.818;0.404;2023-03-23T14:58:52;0.70;;;0.50;;
55813;SDS011;65494;42.818;0.404;2023-03-23T15:01:19;1.73;;;0.85;;
55813;SDS011;65494;42.818;0.404;2023-03-23T15:03:53;1.33;;;0.68;;
55813;SDS011;65494;42.818;0.404;2023-03-23T15:06:20;2.00;;;0.73;;
55813;SDS011;65494;42.818;0.404;2023-03-23T15:08:47;1.15;;;0.70;;
55813;SDS011;65494;42.818;0.404;2023-03-23T15:13:43;1.10;;;0.50;;
55813;SDS011;65494;42.818;0.404;2023-03-23T15:16:17;0.80;;;0.70;;
55813;SDS011;65494;42.818;0.404;2023-03-23T15:21:18;2.10;;;0.77;;
55813;SDS011;65494;42.818;0.404;2023-03-23T15:26:33;5.75;;;0.90;;
55813;SDS011;65494;42.818;0.404;2023-03-23T15:29:02;1.60;;;0.75;;
55813;SDS011;65494;42.818;0.404;2023-03-23T15:31:29;1.88;;;0.60;;
55813;SDS011;65494;42.818;0.404;2023-03-23T15:34:01;1.30;;;0.70;;
55813;SDS011;65494;42.818;0.404;2023-03-23T15:36:30;0.73;;;0.60;;
55813;SDS011;65494;42.818;0.404;2023-03-23T15:38:57;2.50;;;0.77;;
55813;SDS011;65494;42.818;0.404;2023-03-23T15:41:27;1.50;;;0.70;;
55813;SDS011;65494;42.818;0.404;2023-03-23T15:43:55;1.13;;;0.68;;
55813;SDS011;65494;42.818;0.404;2023-03-23T15:46:27;1.63;;;0.85;;
55813;SDS011;65494;42.818;0.404;2023-03-23T15:49:14;1.23;;;0.57;;
55813;SDS011;65494;42.818;0.404;2023-03-23T15:51:40;1.48;;;0.80;;
55813;SDS011;65494;42.818;0.404;2023-03-23T15:54:13;1.58;;;0.75;;
55813;SDS011;65494;42.818;0.404;2023-03-23T15:56:39;2.22;;;0.73;;
55813;SDS011;65494;42.818;0.404;2023-03-23T15:59:07;2.13;;;0.75;;
55813;SDS011;65494;42.818;0.404;2023-03-23T16:01:33;1.27;;;0.60;;
55813;SDS011;65494;42.818;0.404;2023-03-23T16:06:55;0.55;;;0.43;;
55813;SDS011;65494;42.818;0.404;2023-03-23T16:09:23;1.10;;;0.80;;
55813;SDS011;65494;42.818;0.404;2023-03-23T16:11:50;2.05;;;0.80;;
55813;SDS011;65494;42.818;0.404;2023-03-23T16:14:16;2.22;;;0.65;;
55813;SDS011;65494;42.818;0.404;2023-03-23T16:16:46;0.95;;;0.38;;
55813;SDS011;65494;42.818;0.404;2023-03-23T16:19:13;1.50;;;0.90;;
55813;SDS011;65494;42.818;0.404;2023-03-23T16:21:39;1.67;;;0.70;;
55813;SDS011;65494;42.818;0.404;2023-03-23T16:24:07;4.03;;;0.75;;
55813;SDS011;65494;42.818;0.404;2023-03-23T16:26:33;1.13;;;0.52;;
55813;SDS011;65494;42.818;0.404;2023-03-23T16:28:59;5.03;;;0.90;;
55813;SDS011;65494;42.818;0.404;2023-03-23T16:31:27;2.90;;;1.10;;
55813;SDS011;65494;42.818;0.404;2023-03-23T16:33:53;3.13;;;0.80;;
55813;SDS011;65494;42.818;0.404;2023-03-23T16:36:19;1.58;;;0.77;;
55813;SDS011;65494;42.818;0.404;2023-03-23T16:38:45;4.55;;;1.55;;
55813;SDS011;65494;42.818;0.404;2023-03-23T16:41:12;2.22;;;1.20;;
55813;SDS011;65494;42.818;0.404;2023-03-23T16:43:38;3.40;;;1.10;;
55813;SDS011;65494;42.818;0.404;2023-03-23T16:46:04;6.68;;;1.05;;
55813;SDS011;65494;42.818;0.404;2023-03-23T16:48:30;3.40;;;1.40;;
55813;SDS011;65494;42.818;0.404;2023-03-23T16:50:58;1.13;;;0.80;;
55813;SDS011;65494;42.818;0.404;2023-03-23T16:53:24;2.45;;;1.20;;
55813;SDS011;65494;42.818;0.404;2023-03-23T16:55:51;1.95;;;0.90;;
55813;SDS011;65494;42.818;0.404;2023-03-23T16:58:18;2.28;;;0.90;;
55813;SDS011;65494;42.818;0.404;2023-03-23T17:00:49;1.38;;;0.90;;
55813;SDS011;65494;42.818;0.404;2023-03-23T17:03:19;3.63;;;1.60;;
55813;SDS011;65494;42.818;0.404;2023-03-23T17:05:49;18.05;;;6.45;;
55813;SDS011;65494;42.818;0.404;2023-03-23T17:08:16;7.03;;;2.30;;
55813;SDS011;65494;42.818;0.404;2023-03-23T17:10:42;8.55;;;3.25;;
55813;SDS011;65494;42.818;0.404;2023-03-23T17:13:08;42.55;;;20.48;;
55813;SDS011;65494;42.818;0.404;2023-03-23T17:15:38;20.00;;;8.38;;
55813;SDS011;65494;42.818;0.404;2023-03-23T17:18:05;14.35;;;6.05;;
55813;SDS011;65494;42.818;0.404;2023-03-23T17:20:32;8.55;;;3.20;;
55813;SDS011;65494;42.818;0.404;2023-03-23T17:22:59;8.93;;;2.88;;
55813;SDS011;65494;42.818;0.404;2023-03-23T17:25:26;6.82;;;2.90;;
55813;SDS011;65494;42.818;0.404;2023-03-23T17:27:53;9.98;;;3.10;;
55813;SDS011;65494;42.818;0.404;2023-03-23T17:30:20;11.82;;;3.88;;
55813;SDS011;65494;42.818;0.404;2023-03-23T17:32:46;11.70;;;4.28;;
55813;SDS011;65494;42.818;0.404;2023-03-23T17:35:12;8.95;;;3.63;;
55813;SDS011;65494;42.818;0.404;2023-03-23T17:37:39;11.30;;;3.20;;
55813;SDS011;65494;42.818;0.404;2023-03-23T17:40:05;6.75;;;2.97;;
55813;SDS011;65494;42.818;0.404;2023-03-23T17:42:34;8.13;;;3.35;;
55813;SDS011;65494;42.818;0.404;2023-03-23T17:45:01;16.90;;;6.63;;
55813;SDS011;65494;42.818;0.404;2023-03-23T17:47:27;20.52;;;8.35;;
55813;SDS011;65494;42.818;0.404;2023-03-23T17:49:54;29.85;;;12.00;;
55813;SDS011;65494;42.818;0.404;2023-03-23T17:52:21;29.48;;;13.55;;
55813;SDS011;65494;42.818;0.404;2023-03-23T17:54:48;27.00;;;12.27;;
55813;SDS011;65494;42.818;0.404;2023-03-23T17:57:15;30.33;;;12.15;;
55813;SDS011;65494;42.818;0.404;2023-03-23T17:59:43;31.02;;;13.75;;
55813;SDS011;65494;42.818;0.404;2023-03-23T18:02:16;30.90;;;13.95;;
55813;SDS011;65494;42.818;0.404;2023-03-23T18:04:43;34.00;;;15.80;;
55813;SDS011;65494;42.818;0.404;2023-03-23T18:07:09;47.88;;;21.02;;
55813;SDS011;65494;42.818;0.404;2023-03-23T18:09:35;45.03;;;21.25;;
55813;SDS011;65494;42.818;0.404;2023-03-23T18:12:01;32.17;;;15.52;;
55813;SDS011;65494;42.818;0.404;2023-03-23T18:14:28;31.75;;;14.57;;
55813;SDS011;65494;42.818;0.404;2023-03-23T18:16:55;37.60;;;18.45;;
55813;SDS011;65494;42.818;0.404;2023-03-23T18:19:21;44.28;;;19.58;;
55813;SDS011;65494;42.818;0.404;2023-03-23T18:21:47;36.15;;;16.30;;
55813;SDS011;65494;42.818;0.404;2023-03-23T18:24:13;24.48;;;10.73;;
55813;SDS011;65494;42.818;0.404;2023-03-23T18:26:39;34.92;;;14.00;;
55813;SDS011;65494;42.818;0.404;2023-03-23T18:29:05;24.45;;;11.65;;
55813;SDS011;65494;42.818;0.404;2023-03-23T18:31:32;25.80;;;12.05;;
55813;SDS011;65494;42.818;0.404;2023-03-23T18:33:58;23.63;;;11.25;;
55813;SDS011;65494;42.818;0.404;2023-03-23T18:36:25;30.40;;;13.75;;
55813;SDS011;65494;42.818;0.404;2023-03-23T18:38:53;31.52;;;13.98;;
55813;SDS011;65494;42.818;0.404;2023-03-23T18:41:20;34.10;;;13.85;;
55813;SDS011;65494;42.818;0.404;2023-03-23T18:43:46;37.13;;;15.82;;
55813;SDS011;65494;42.818;0.404;2023-03-23T18:46:13;43.20;;;19.77;;
55813;SDS011;65494;42.818;0.404;2023-03-23T18:48:39;48.90;;;22.17;;
55813;SDS011;65494;42.818;0.404;2023-03-23T18:51:05;44.10;;;20.02;;
55813;SDS011;65494;42.818;0.404;2023-03-23T18:53:33;50.83;;;22.88;;
55813;SDS011;65494;42.818;0.404;2023-03-23T18:56:06;47.40;;;20.02;;
55813;SDS011;65494;42.818;0.404;2023-03-23T18:58:51;37.17;;;17.80;;
55813;SDS011;65494;42.818;0.404;2023-03-23T19:01:18;39.40;;;17.77;;
55813;SDS011;65494;42.818;0.404;2023-03-23T19:03:44;44.42;;;20.83;;
55813;SDS011;65494;42.818;0.404;2023-03-23T19:06:15;37.28;;;16.20;;
55813;SDS011;65494;42.818;0.404;2023-03-23T19:08:43;44.70;;;18.40;;
55813;SDS011;65494;42.818;0.404;2023-03-23T19:11:09;36.63;;;16.92;;
55813;SDS011;65494;42.818;0.404;2023-03-23T19:13:36;32.92;;;13.75;;
55813;SDS011;65494;42.818;0.404;2023-03-23T19:16:02;28.08;;;12.85;;
55813;SDS011;65494;42.818;0.404;2023-03-23T19:18:28;27.40;;;12.75;;
55813;SDS011;65494;42.818;0.404;2023-03-23T19:20:55;24.63;;;11.25;;
55813;SDS011;65494;42.818;0.404;2023-03-23T19:23:21;29.60;;;12.00;;
55813;SDS011;65494;42.818;0.404;2023-03-23T19:25:47;27.95;;;12.30;;
55813;SDS011;65494;42.818;0.404;2023-03-23T19:28:14;27.60;;;12.57;;
55813;SDS011;65494;42.818;0.404;2023-03-23T19:30:48;28.15;;;12.35;;
55813;SDS011;65494;42.818;0.404;2023-03-23T19:33:15;27.73;;;11.52;;
55813;SDS011;65494;42.818;0.404;2023-03-23T19:35:41;28.40;;;12.40;;
55813;SDS011;65494;42.818;0.404;2023-03-23T19:38:08;29.08;;;11.63;;
55813;SDS011;65494;42.818;0.404;2023-03-23T19:40:35;22.67;;;9.10;;
55813;SDS011;65494;42.818;0.404;2023-03-23T19:43:02;21.27;;;10.85;;
55813;SDS011;65494;42.818;0.404;2023-03-23T19:45:28;18.65;;;8.45;;
55813;SDS011;65494;42.818;0.404;2023-03-23T19:47:55;17.80;;;8.90;;
55813;SDS011;65494;42.818;0.404;2023-03-23T19:50:21;19.35;;;8.13;;
55813;SDS011;65494;42.818;0.404;2023-03-23T19:52:48;20.50;;;7.32;;
55813;SDS011;65494;42.818;0.404;2023-03-23T19:55:14;16.27;;;6.40;;
55813;SDS011;65494;42.818;0.404;2023-03-23T19:57:41;13.80;;;5.47;;
55813;SDS011;65494;42.818;0.404;2023-03-23T20:00:08;21.02;;;7.00;;
55813;SDS011;65494;42.818;0.404;2023-03-23T20:02:37;17.85;;;7.72;;
55813;SDS011;65494;42.818;0.404;2023-03-23T20:05:03;14.50;;;7.05;;
55813;SDS011;65494;42.818;0.404;2023-03-23T20:07:29;14.90;;;5.95;;
55813;SDS011;65494;42.818;0.404;2023-03-23T20:09:56;20.27;;;7.55;;
55813;SDS011;65494;42.818;0.404;2023-03-23T20:12:22;16.75;;;6.97;;
55813;SDS011;65494;42.818;0.404;2023-03-23T20:14:49;20.80;;;8.23;;
55813;SDS011;65494;42.818;0.404;2023-03-23T20:17:15;29.08;;;10.55;;
55813;SDS011;65494;42.818;0.404;2023-03-23T20:19:41;31.50;;;12.77;;
55813;SDS011;65494;42.818;0.404;2023-03-23T20:22:07;39.85;;;15.20;;
55813;SDS011;65494;42.818;0.404;2023-03-23T20:24:34;53.17;;;23.00;;
55813;SDS011;65494;42.818;0.404;2023-03-23T20:27:01;24.13;;;9.38;;
55813;SDS011;65494;42.818;0.404;2023-03-23T20:29:28;21.35;;;7.88;;
55813;SDS011;65494;42.818;0.404;2023-03-23T20:31:55;17.52;;;7.40;;
55813;SDS011;65494;42.818;0.404;2023-03-23T20:34:22;16.70;;;6.80;;
55813;SDS011;65494;42.818;0.404;2023-03-23T20:36:55;14.63;;;5.53;;
55813;SDS011;65494;42.818;0.404;2023-03-23T20:39:22;16.95;;;7.20;;
55813;SDS011;65494;42.818;0.404;2023-03-23T20:41:49;11.55;;;4.65;;
55813;SDS011;65494;42.818;0.404;2023-03-23T20:44:16;12.38;;;4.78;;
55813;SDS011;65494;42.818;0.404;2023-03-23T20:46:42;10.52;;;4.53;;
55813;SDS011;65494;42.818;0.404;2023-03-23T20:49:08;13.60;;;6.30;;
55813;SDS011;65494;42.818;0.404;2023-03-23T20:51:35;14.88;;;5.97;;
55813;SDS011;65494;42.818;0.404;2023-03-23T20:54:01;12.10;;;5.65;;
55813;SDS011;65494;42.818;0.404;2023-03-23T20:56:28;18.63;;;10.55;;
55813;SDS011;65494;42.818;0.404;2023-03-23T20:58:56;12.73;;;5.03;;
55813;SDS011;65494;42.818;0.404;2023-03-23T21:01:23;11.65;;;4.53;;
55813;SDS011;65494;42.818;0.404;2023-03-23T21:03:50;9.40;;;4.07;;
55813;SDS011;65494;42.818;0.404;2023-03-23T21:06:18;10.10;;;4.13;;
55813;SDS011;65494;42.818;0.404;2023-03-23T21:08:44;8.77;;;3.50;;
55813;SDS011;65494;42.818;0.404;2023-03-23T21:11:13;14.70;;;4.95;;
55813;SDS011;65494;42.818;0.404;2023-03-23T21:13:41;9.95;;;4.72;;
55813;SDS011;65494;42.818;0.404;2023-03-23T21:16:07;10.82;;;4.07;;